createdAt,value
2022-11-27T00:01:38.745Z,3.50
2022-11-27T00:04:09.050Z,3.73
2022-11-27T00:06:35.847Z,3.23
2022-11-27T00:09:03.473Z,3.67
2022-11-27T00:11:30.674Z,4.60
2022-11-27T00:13:57.282Z,3.67
2022-11-27T00:16:24.410Z,3.43
2022-11-27T00:18:51.117Z,4.43
2022-11-27T00:21:22.420Z,2.97
2022-11-27T00:23:48.860Z,3.30
2022-11-27T00:26:15.212Z,3.23
2022-11-27T00:28:41.551Z,2.83
2022-11-27T00:31:17.869Z,3.80
2022-11-27T00:33:44.488Z,3.00
2022-11-27T00:36:11.501Z,4.27
2022-11-27T00:38:39.223Z,3.80
2022-11-27T00:41:06.751Z,3.50
2022-11-27T00:43:43.256Z,2.43
2022-11-27T00:46:11.621Z,5.47
2022-11-27T00:48:38.220Z,2.70
2022-11-27T00:51:06.350Z,3.33
2022-11-27T00:53:33.017Z,3.30
2022-11-27T00:55:59.837Z,3.10
2022-11-27T00:58:26.581Z,2.60
2022-11-27T01:00:56.478Z,2.53
2022-11-27T01:03:23.162Z,2.83
2022-11-27T01:05:49.453Z,2.13
2022-11-27T01:08:15.857Z,3.97
2022-11-27T01:10:54.781Z,2.23
2022-11-27T01:13:28.839Z,3.93
2022-11-27T01:15:59.017Z,3.13
2022-11-27T01:18:25.345Z,3.13
2022-11-27T01:20:55.339Z,3.20
2022-11-27T01:23:22.207Z,3.50
2022-11-27T01:25:48.794Z,3.43
2022-11-27T01:28:15.778Z,2.87
2022-11-27T01:30:42.289Z,4.00
2022-11-27T01:33:08.570Z,3.30
2022-11-27T01:35:34.838Z,3.37
2022-11-27T01:38:01.129Z,2.60
2022-11-27T01:40:27.397Z,3.80
2022-11-27T01:42:53.673Z,3.83
2022-11-27T01:45:21.133Z,2.87
2022-11-27T01:47:52.783Z,3.40
2022-11-27T01:50:21.701Z,3.87
2022-11-27T01:52:50.181Z,3.37
2022-11-27T01:55:42.809Z,3.90
2022-11-27T01:58:13.409Z,3.20
2022-11-27T02:00:40.025Z,3.90
2022-11-27T02:03:06.711Z,3.23
2022-11-27T02:05:33.490Z,3.37
2022-11-27T02:08:01.530Z,4.30
2022-11-27T02:10:38.086Z,3.23
2022-11-27T02:13:07.562Z,3.20
2022-11-27T02:15:43.846Z,4.00
2022-11-27T02:18:19.234Z,3.50
2022-11-27T02:20:51.820Z,3.63
2022-11-27T02:23:23.983Z,3.07
2022-11-27T02:26:08.958Z,3.07
2022-11-27T02:28:43.299Z,4.95
2022-11-27T02:31:16.026Z,3.53
2022-11-27T02:33:45.355Z,3.83
2022-11-27T02:36:17.031Z,3.47
2022-11-27T02:38:53.117Z,4.27
2022-11-27T02:41:22.101Z,4.93
2022-11-27T02:43:49.533Z,3.63
2022-11-27T02:46:17.384Z,6.13
2022-11-27T02:49:10.162Z,4.17
2022-11-27T02:51:45.782Z,5.23
2022-11-27T02:54:14.572Z,4.60
2022-11-27T02:56:41.751Z,3.23
2022-11-27T02:59:10.988Z,4.77
2022-11-27T03:01:39.798Z,3.50
2022-11-27T03:04:09.012Z,4.33
2022-11-27T03:06:41.622Z,3.77
2022-11-27T03:09:10.197Z,3.70
2022-11-27T03:11:37.224Z,4.53
2022-11-27T03:14:05.672Z,4.17
2022-11-27T03:16:40.337Z,3.77
2022-11-27T03:19:06.630Z,5.57
2022-11-27T03:21:36.006Z,4.00
2022-11-27T03:24:02.554Z,4.80
2022-11-27T03:26:28.954Z,4.70
2022-11-27T03:28:56.390Z,4.00
2022-11-27T03:31:23.782Z,4.77
2022-11-27T03:33:50.486Z,4.53
2022-11-27T03:36:17.780Z,4.57
2022-11-27T03:38:45.182Z,4.20
2022-11-27T03:41:16.819Z,4.00
2022-11-27T03:43:49.618Z,4.13
2022-11-27T03:46:28.535Z,4.00
2022-11-27T03:49:00.751Z,4.23
2022-11-27T03:51:37.100Z,3.67
2022-11-27T03:54:06.751Z,3.83
2022-11-27T03:56:32.974Z,5.07
2022-11-27T03:59:01.767Z,3.77
2022-11-27T04:01:28.714Z,4.47
2022-11-27T04:03:55.044Z,4.33
2022-11-27T04:06:21.359Z,3.80
2022-11-27T04:08:48.100Z,3.77
2022-11-27T04:11:14.952Z,2.97
2022-11-27T04:13:41.242Z,3.77
2022-11-27T04:16:07.762Z,3.50
2022-11-27T04:18:34.156Z,2.97
2022-11-27T04:21:00.478Z,3.40
2022-11-27T04:23:26.747Z,2.73
2022-11-27T04:25:53.024Z,3.60
2022-11-27T04:28:19.294Z,3.37
2022-11-27T04:30:45.581Z,2.60
2022-11-27T04:33:11.838Z,3.87
2022-11-27T04:35:38.105Z,3.37
2022-11-27T04:38:04.448Z,3.60
2022-11-27T04:40:30.786Z,2.73
2022-11-27T04:42:57.059Z,3.17
2022-11-27T04:45:23.361Z,2.53
2022-11-27T04:47:49.665Z,3.17
2022-11-27T04:50:15.935Z,2.60
2022-11-27T04:52:42.263Z,2.97
2022-11-27T04:55:08.842Z,2.63
2022-11-27T04:57:35.134Z,2.80
2022-11-27T05:00:01.636Z,2.93
2022-11-27T05:02:27.941Z,3.20
2022-11-27T05:04:54.751Z,2.20
2022-11-27T05:07:21.334Z,3.77
2022-11-27T05:09:47.629Z,4.23
2022-11-27T05:12:13.896Z,3.13
2022-11-27T05:14:40.294Z,3.03
2022-11-27T05:17:06.732Z,2.40
2022-11-27T05:19:33.023Z,2.60
2022-11-27T05:21:59.386Z,2.97
2022-11-27T05:24:26.709Z,3.57
2022-11-27T05:26:53.007Z,3.40
2022-11-27T05:29:19.332Z,2.93
2022-11-27T05:31:45.866Z,2.83
2022-11-27T05:34:12.553Z,3.00
2022-11-27T05:36:39.094Z,2.23
2022-11-27T05:39:06.773Z,2.43
2022-11-27T05:41:33.414Z,3.50
2022-11-27T05:43:59.663Z,3.23
2022-11-27T05:46:26.136Z,2.97
2022-11-27T05:48:52.559Z,3.03
2022-11-27T05:51:18.883Z,2.90
2022-11-27T05:53:45.543Z,2.67
2022-11-27T05:56:12.933Z,4.23
2022-11-27T05:58:40.215Z,3.67
2022-11-27T06:01:07.198Z,2.63
2022-11-27T06:03:33.605Z,2.60
2022-11-27T06:06:05.193Z,2.23
2022-11-27T06:08:31.467Z,2.50
2022-11-27T06:10:57.714Z,2.63
2022-11-27T06:13:23.995Z,3.00
2022-11-27T06:15:50.262Z,3.20
2022-11-27T06:18:16.538Z,4.10
2022-11-27T06:20:45.305Z,3.10
2022-11-27T06:23:13.057Z,3.20
2022-11-27T06:25:39.318Z,3.63
2022-11-27T06:28:05.583Z,3.00
2022-11-27T06:30:31.895Z,2.37
2022-11-27T06:32:58.179Z,2.77
2022-11-27T06:35:24.463Z,2.70
2022-11-27T06:37:50.786Z,3.03
2022-11-27T06:40:17.088Z,3.00
2022-11-27T06:42:43.345Z,2.70
2022-11-27T06:45:10.240Z,3.23
2022-11-27T06:47:36.559Z,3.67
2022-11-27T06:50:03.069Z,2.70
2022-11-27T06:52:31.940Z,3.50
2022-11-27T06:54:59.910Z,2.13
2022-11-27T06:57:26.183Z,3.33
2022-11-27T06:59:52.482Z,4.63
2022-11-27T07:02:18.829Z,2.40
2022-11-27T07:04:45.127Z,3.50
2022-11-27T07:07:11.465Z,2.40
2022-11-27T07:09:37.805Z,2.40
2022-11-27T07:12:05.069Z,2.27
2022-11-27T07:14:32.404Z,2.47
2022-11-27T07:16:58.765Z,2.57
2022-11-27T07:19:25.069Z,2.40
2022-11-27T07:21:51.340Z,2.23
2022-11-27T07:24:17.586Z,2.50
2022-11-27T07:26:43.841Z,2.63
2022-11-27T07:29:10.115Z,3.03
2022-11-27T07:31:36.403Z,3.73
2022-11-27T07:34:04.125Z,2.30
2022-11-27T07:36:33.108Z,2.00
2022-11-27T07:38:59.464Z,3.53
2022-11-27T07:41:30.603Z,3.37
2022-11-27T07:43:59.901Z,2.23
2022-11-27T07:46:26.193Z,2.83
2022-11-27T07:48:52.798Z,2.60
2022-11-27T07:51:20.078Z,3.00
2022-11-27T07:53:46.396Z,2.53
2022-11-27T07:56:13.968Z,2.57
2022-11-27T07:58:40.251Z,4.03
2022-11-27T08:01:08.265Z,3.07
2022-11-27T08:03:34.691Z,2.33
2022-11-27T08:06:01.041Z,2.50
2022-11-27T08:08:27.308Z,2.03
2022-11-27T08:10:53.581Z,2.47
2022-11-27T08:13:19.829Z,3.13
2022-11-27T08:15:46.206Z,2.40
2022-11-27T08:18:12.506Z,2.83
2022-11-27T08:20:38.783Z,2.47
2022-11-27T08:23:05.055Z,3.23
2022-11-27T08:25:31.917Z,2.40
2022-11-27T08:27:58.263Z,2.23
2022-11-27T08:30:24.621Z,2.03
2022-11-27T08:32:50.939Z,2.67
2022-11-27T08:35:17.524Z,3.03
2022-11-27T08:37:43.838Z,2.90
2022-11-27T08:40:10.507Z,2.43
2022-11-27T08:42:36.803Z,2.53
2022-11-27T08:45:03.242Z,2.90
2022-11-27T08:47:29.541Z,2.97
2022-11-27T08:49:55.843Z,3.40
2022-11-27T08:52:22.268Z,3.53
2022-11-27T08:54:50.913Z,3.27
2022-11-27T08:57:20.816Z,3.70
2022-11-27T08:59:47.083Z,4.33
2022-11-27T09:02:13.487Z,3.87
2022-11-27T09:04:40.186Z,4.10
2022-11-27T09:07:06.669Z,4.77
2022-11-27T09:09:32.962Z,5.10
2022-11-27T09:11:59.238Z,3.17
2022-11-27T09:14:25.514Z,3.40
2022-11-27T09:16:52.948Z,2.83
2022-11-27T09:19:19.565Z,3.17
2022-11-27T09:21:45.834Z,3.80
2022-11-27T09:24:12.139Z,4.00
2022-11-27T09:26:38.955Z,3.63
2022-11-27T09:29:05.215Z,4.83
2022-11-27T09:31:31.553Z,4.07
2022-11-27T09:33:58.503Z,4.20
2022-11-27T09:36:25.391Z,3.73
2022-11-27T09:38:53.304Z,3.80
2022-11-27T09:41:19.595Z,3.87
2022-11-27T09:43:57.261Z,3.97
2022-11-27T09:46:31.233Z,4.03
2022-11-27T09:48:58.909Z,3.77
2022-11-27T09:51:37.275Z,5.17
2022-11-27T09:54:07.542Z,4.30
2022-11-27T09:56:34.842Z,4.10
2022-11-27T09:59:02.144Z,3.70
2022-11-27T10:01:36.466Z,4.03
2022-11-27T10:04:06.362Z,4.60
2022-11-27T10:06:41.673Z,3.80
2022-11-27T10:11:34.152Z,4.07
2022-11-27T10:14:02.442Z,4.57
2022-11-27T10:16:28.734Z,3.73
2022-11-27T10:18:58.252Z,4.00
2022-11-27T10:21:36.697Z,4.00
2022-11-27T10:24:11.201Z,5.67
2022-11-27T10:26:44.249Z,3.78
2022-11-27T10:29:19.687Z,4.60
2022-11-27T10:31:50.042Z,4.43
2022-11-27T10:34:37.078Z,5.47
2022-11-27T10:37:07.643Z,4.80
2022-11-27T10:39:41.240Z,4.47
2022-11-27T10:42:13.910Z,4.30
2022-11-27T10:44:59.110Z,4.80
2022-11-27T10:47:30.898Z,4.57
2022-11-27T10:50:00.001Z,5.30
2022-11-27T10:52:26.334Z,5.50
2022-11-27T10:55:03.863Z,5.63
2022-11-27T10:57:36.557Z,4.57
2022-11-27T11:00:09.222Z,4.27
2022-11-27T11:02:38.362Z,5.20
2022-11-27T11:05:32.795Z,5.17
2022-11-27T11:08:01.013Z,5.30
2022-11-27T11:10:32.277Z,5.73
2022-11-27T11:13:05.609Z,5.50
2022-11-27T11:15:32.688Z,4.43
2022-11-27T11:17:59.002Z,5.30
2022-11-27T11:20:25.734Z,5.13
2022-11-27T11:22:52.126Z,5.97
2022-11-27T11:25:19.433Z,4.53
2022-11-27T11:27:46.159Z,4.97
2022-11-27T11:30:22.941Z,4.87
2022-11-27T11:32:50.404Z,4.67
2022-11-27T11:35:25.558Z,5.40
2022-11-27T11:37:52.606Z,4.75
2022-11-27T11:40:27.269Z,4.70
2022-11-27T11:42:58.862Z,4.47
2022-11-27T11:45:28.766Z,4.60
2022-11-27T11:47:59.839Z,4.57
2022-11-27T11:50:38.440Z,4.83
2022-11-27T11:53:30.788Z,6.43
2022-11-27T11:56:15.596Z,4.83
2022-11-27T11:58:50.821Z,4.25
2022-11-27T12:03:56.243Z,3.73
2022-11-27T12:06:41.133Z,5.40
2022-11-27T12:09:07.373Z,4.40
2022-11-27T12:11:37.728Z,4.13
2022-11-27T12:14:11.379Z,4.47
2022-11-27T12:16:45.963Z,4.60
2022-11-27T12:19:24.895Z,5.50
2022-11-27T12:22:00.488Z,4.37
2022-11-27T12:24:38.833Z,3.87
2022-11-27T12:27:18.561Z,4.67
2022-11-27T12:29:50.837Z,4.73
2022-11-27T12:32:23.105Z,4.87
2022-11-27T12:34:49.330Z,5.57
2022-11-27T12:37:35.921Z,4.77
2022-11-27T12:40:20.301Z,5.37
2022-11-27T12:43:01.708Z,5.20
2022-11-27T12:45:30.983Z,4.73
2022-11-27T12:48:03.398Z,5.77
2022-11-27T12:50:38.121Z,4.67
2022-11-27T12:53:25.054Z,4.63
2022-11-27T12:56:15.898Z,5.23
2022-11-27T12:58:48.327Z,5.30
2022-11-27T13:01:26.581Z,5.03
2022-11-27T13:04:11.817Z,4.37
2022-11-27T13:06:53.620Z,4.75
2022-11-27T13:09:26.011Z,4.57
2022-11-27T13:11:52.379Z,5.03
2022-11-27T13:14:20.325Z,5.17
2022-11-27T13:16:58.593Z,5.13
2022-11-27T13:19:33.132Z,5.03
2022-11-27T13:22:00.082Z,4.10
2022-11-27T13:24:28.244Z,5.57
2022-11-27T13:27:13.114Z,4.67
2022-11-27T13:29:42.447Z,4.95
2022-11-27T13:32:08.919Z,4.17
2022-11-27T13:34:42.970Z,4.87
2022-11-27T13:37:09.764Z,5.10
2022-11-27T13:39:40.422Z,4.90
2022-11-27T13:42:18.294Z,4.93
2022-11-27T13:44:52.337Z,4.23
2022-11-27T13:47:20.037Z,4.53
2022-11-27T13:49:57.622Z,4.80
2022-11-27T13:52:24.376Z,5.40
2022-11-27T13:54:53.769Z,4.83
2022-11-27T13:57:21.260Z,4.80
2022-11-27T13:59:59.477Z,4.50
2022-11-27T14:02:26.626Z,5.73
2022-11-27T14:04:56.478Z,4.23
2022-11-27T14:07:23.726Z,4.80
2022-11-27T14:09:52.334Z,5.33
2022-11-27T14:12:24.206Z,4.40
2022-11-27T14:15:02.565Z,5.10
2022-11-27T14:17:37.091Z,5.23
2022-11-27T14:20:24.439Z,5.18
2022-11-27T14:23:12.405Z,4.90
2022-11-27T14:25:39.075Z,4.83
2022-11-27T14:28:05.464Z,4.93
2022-11-27T14:30:31.819Z,4.53
2022-11-27T14:32:58.442Z,4.93
2022-11-27T14:35:26.093Z,4.60
2022-11-27T14:37:52.752Z,5.70
2022-11-27T14:40:21.591Z,4.57
2022-11-27T14:42:47.856Z,5.23
2022-11-27T14:45:15.350Z,5.57
2022-11-27T14:47:46.303Z,5.53
2022-11-27T14:50:13.966Z,7.33
2022-11-27T14:52:42.130Z,5.73
2022-11-27T14:55:15.493Z,6.27
2022-11-27T14:57:42.443Z,5.37
2022-11-27T15:00:15.080Z,5.23
2022-11-27T15:02:41.546Z,4.80
2022-11-27T15:05:17.223Z,5.33
2022-11-27T15:07:49.372Z,6.00
2022-11-27T15:10:34.541Z,4.63
2022-11-27T15:13:02.264Z,5.27
2022-11-27T15:15:29.566Z,5.93
2022-11-27T15:18:00.680Z,5.47
2022-11-27T15:20:43.555Z,4.50
2022-11-27T15:23:29.160Z,4.40
2022-11-27T15:26:01.870Z,4.88
2022-11-27T15:28:29.769Z,5.03
2022-11-27T15:30:56.711Z,4.77
2022-11-27T15:33:27.506Z,5.30
2022-11-27T15:35:55.048Z,4.47
2022-11-27T15:38:21.379Z,5.70
2022-11-27T15:40:57.251Z,4.47
2022-11-27T15:43:23.540Z,4.40
2022-11-27T15:45:51.055Z,4.23
2022-11-27T15:48:18.580Z,6.17
2022-11-27T15:50:50.068Z,3.90
2022-11-27T15:53:18.061Z,4.20
2022-11-27T15:55:44.424Z,4.77
2022-11-27T15:58:10.750Z,4.00
2022-11-27T16:00:37.158Z,3.47
2022-11-27T16:03:03.509Z,4.60
2022-11-27T16:05:29.757Z,4.10
2022-11-27T16:07:56.104Z,4.27
2022-11-27T16:10:22.473Z,4.03
2022-11-27T16:12:48.763Z,5.17
2022-11-27T16:15:15.020Z,4.73
2022-11-27T16:17:41.298Z,4.13
2022-11-27T16:20:07.995Z,3.87
2022-11-27T16:22:34.286Z,5.07
2022-11-27T16:25:00.563Z,4.37
2022-11-27T16:27:26.918Z,3.97
2022-11-27T16:29:53.174Z,4.67
2022-11-27T16:32:19.424Z,4.77
2022-11-27T16:34:45.673Z,3.90
2022-11-27T16:37:17.038Z,3.50
2022-11-27T16:39:44.590Z,3.97
2022-11-27T16:42:10.841Z,4.33
2022-11-27T16:44:37.109Z,3.60
2022-11-27T16:47:03.389Z,4.57
2022-11-27T16:49:29.754Z,4.57
2022-11-27T16:51:56.091Z,4.87
2022-11-27T16:54:22.389Z,4.00
2022-11-27T16:56:48.662Z,5.33
2022-11-27T16:59:15.440Z,4.07
2022-11-27T17:01:42.636Z,3.60
2022-11-27T17:04:14.152Z,4.43
2022-11-27T17:06:40.602Z,3.50
2022-11-27T17:09:07.608Z,3.57
2022-11-27T17:11:34.649Z,3.77
2022-11-27T17:14:01.899Z,4.37
2022-11-27T17:16:28.536Z,4.37
2022-11-27T17:18:55.127Z,4.33
2022-11-27T17:21:26.384Z,3.57
2022-11-27T17:24:00.157Z,4.63
2022-11-27T17:26:27.735Z,4.00
2022-11-27T17:28:57.241Z,4.17
2022-11-27T17:31:24.799Z,5.20
2022-11-27T17:33:52.510Z,3.47
2022-11-27T17:36:19.055Z,4.40
2022-11-27T17:38:45.319Z,4.60
2022-11-27T17:41:12.740Z,5.37
2022-11-27T17:43:39.796Z,4.37
2022-11-27T17:46:06.922Z,3.33
2022-11-27T17:48:33.342Z,4.60
2022-11-27T17:50:59.905Z,3.83
2022-11-27T17:53:26.665Z,3.87
2022-11-27T17:55:53.042Z,3.87
2022-11-27T17:58:19.334Z,3.23
2022-11-27T18:00:45.717Z,4.07
2022-11-27T18:03:11.995Z,3.90
2022-11-27T18:05:38.682Z,3.77
2022-11-27T18:08:05.503Z,5.50
2022-11-27T18:10:34.927Z,4.40
2022-11-27T18:13:01.353Z,4.50
2022-11-27T18:15:27.639Z,4.03
2022-11-27T18:17:54.034Z,3.63
2022-11-27T18:20:20.425Z,4.87
2022-11-27T18:22:46.682Z,4.00
2022-11-27T18:25:12.969Z,4.47
2022-11-27T18:27:39.237Z,4.37
2022-11-27T18:30:05.883Z,4.50
2022-11-27T18:32:32.197Z,4.30
2022-11-27T18:34:58.474Z,4.93
2022-11-27T18:37:24.867Z,4.37
2022-11-27T18:39:51.379Z,4.30
2022-11-27T18:42:17.645Z,4.70
2022-11-27T18:44:45.061Z,4.60
2022-11-27T18:47:11.762Z,4.93
2022-11-27T18:49:39.226Z,4.50
2022-11-27T18:52:06.219Z,4.57
2022-11-27T18:54:32.754Z,3.83
2022-11-27T18:56:59.584Z,4.23
2022-11-27T18:59:26.365Z,5.23
2022-11-27T19:01:53.324Z,4.60
2022-11-27T19:04:19.743Z,4.13
2022-11-27T19:06:46.135Z,5.07
2022-11-27T19:09:13.164Z,4.23
2022-11-27T19:11:39.916Z,4.17
2022-11-27T19:14:06.595Z,5.10
2022-11-27T19:16:34.522Z,5.93
2022-11-27T19:19:01.679Z,5.47
2022-11-27T19:21:28.790Z,5.80
2022-11-27T19:23:55.347Z,5.33
2022-11-27T19:26:22.496Z,5.07
2022-11-27T19:28:52.520Z,5.93
2022-11-27T19:31:19.163Z,6.20
2022-11-27T19:33:50.456Z,5.37
2022-11-27T19:36:16.881Z,5.10
2022-11-27T19:38:43.318Z,5.87
2022-11-27T19:41:10.883Z,4.67
2022-11-27T19:43:37.153Z,4.30
2022-11-27T19:46:11.957Z,5.67
2022-11-27T19:48:38.258Z,5.65
2022-11-27T19:51:04.603Z,6.23
2022-11-27T19:53:30.909Z,5.40
2022-11-27T19:55:57.200Z,6.40
2022-11-27T19:58:23.473Z,5.83
2022-11-27T20:00:49.854Z,6.60
2022-11-27T20:03:16.192Z,5.67
2022-11-27T20:05:42.497Z,6.63
2022-11-27T20:08:08.907Z,5.33
2022-11-27T20:10:35.189Z,5.77
2022-11-27T20:13:01.746Z,5.63
2022-11-27T20:15:28.308Z,5.47
2022-11-27T20:17:54.693Z,5.30
2022-11-27T20:20:21.603Z,6.17
2022-11-27T20:22:47.935Z,5.00
2022-11-27T20:25:21.410Z,5.90
2022-11-27T20:27:47.736Z,5.40
2022-11-27T20:30:14.056Z,5.10
2022-11-27T20:32:40.458Z,4.87
2022-11-27T20:35:07.112Z,5.83
2022-11-27T20:37:33.967Z,5.87
2022-11-27T20:40:00.297Z,6.17
2022-11-27T20:42:26.664Z,4.50
2022-11-27T20:44:53.066Z,4.10
2022-11-27T20:47:19.360Z,5.40
2022-11-27T20:49:45.639Z,5.17
2022-11-27T20:52:13.205Z,6.00
2022-11-27T20:54:39.523Z,5.83
2022-11-27T20:57:06.288Z,5.50
2022-11-27T20:59:32.660Z,5.67
2022-11-27T21:01:59.085Z,4.83
2022-11-27T21:04:25.927Z,5.93
2022-11-27T21:06:52.310Z,5.40
2022-11-27T21:09:18.794Z,4.90
2022-11-27T21:11:45.558Z,5.20
2022-11-27T21:14:13.195Z,5.00
2022-11-27T21:16:41.971Z,4.33
2022-11-27T21:19:12.624Z,5.50
2022-11-27T21:21:39.059Z,5.13
2022-11-27T21:24:05.678Z,5.60
2022-11-27T21:26:32.103Z,4.83
2022-11-27T21:28:58.396Z,5.63
2022-11-27T21:31:25.711Z,5.73
2022-11-27T21:33:56.242Z,6.47
2022-11-27T21:36:23.607Z,5.07
2022-11-27T21:38:49.888Z,4.70
2022-11-27T21:41:17.644Z,5.70
2022-11-27T21:43:44.670Z,7.00
2022-11-27T21:46:13.266Z,5.50
2022-11-27T21:48:40.329Z,5.07
2022-11-27T21:51:07.512Z,5.37
2022-11-27T21:53:33.804Z,4.90
2022-11-27T21:56:03.461Z,4.33
2022-11-27T21:58:34.045Z,4.47
2022-11-27T22:01:10.839Z,5.07
2022-11-27T22:03:42.146Z,5.07
2022-11-27T22:06:12.603Z,5.60
2022-11-27T22:08:39.848Z,4.47
2022-11-27T22:11:07.000Z,4.33
2022-11-27T22:13:33.347Z,6.80
2022-11-27T22:15:59.647Z,5.07
2022-11-27T22:18:26.144Z,4.90
2022-11-27T22:20:52.741Z,5.70
2022-11-27T22:23:19.010Z,4.90
2022-11-27T22:25:45.426Z,4.90
2022-11-27T22:28:11.686Z,5.60
2022-11-27T22:30:38.001Z,4.73
2022-11-27T22:33:04.348Z,4.80
2022-11-27T22:35:30.613Z,5.57
2022-11-27T22:37:57.073Z,5.00
2022-11-27T22:40:23.401Z,5.77
2022-11-27T22:42:49.703Z,4.87
2022-11-27T22:45:16.224Z,5.10
2022-11-27T22:47:42.679Z,5.13
2022-11-27T22:50:09.047Z,4.83
2022-11-27T22:52:35.337Z,5.13
2022-11-27T22:55:01.679Z,5.40
2022-11-27T22:57:27.936Z,5.57
2022-11-27T22:59:54.216Z,5.27
2022-11-27T23:02:20.582Z,5.07
2022-11-27T23:04:47.179Z,5.10
2022-11-27T23:07:13.527Z,4.93
2022-11-27T23:09:39.833Z,5.90
2022-11-27T23:12:06.192Z,5.00
2022-11-27T23:14:32.462Z,5.53
2022-11-27T23:16:58.788Z,3.90
2022-11-27T23:19:25.153Z,5.47
2022-11-27T23:21:51.461Z,5.83
2022-11-27T23:24:17.785Z,3.80
2022-11-27T23:26:45.668Z,4.07
2022-11-27T23:29:12.346Z,4.40
2022-11-27T23:31:38.891Z,3.67
2022-11-27T23:34:09.960Z,3.63
2022-11-27T23:36:36.593Z,3.43
2022-11-27T23:39:04.695Z,3.57
2022-11-27T23:41:30.957Z,4.23
2022-11-27T23:43:57.934Z,4.73
2022-11-27T23:46:26.174Z,3.90
2022-11-27T23:48:56.770Z,4.20
2022-11-27T23:51:27.472Z,3.83
2022-11-27T23:53:53.848Z,4.70
2022-11-27T23:56:21.362Z,4.33
2022-11-27T23:58:48.079Z,3.70
